createdAt,value
2023-03-07T06:12:15.792Z,3.00
2023-03-07T06:12:51.110Z,3.10
2023-03-07T06:13:28.654Z,3.30
2023-03-07T06:14:02.523Z,3.50
2023-03-07T06:14:35.386Z,3.80
2023-03-07T06:15:14.963Z,4.20
2023-03-07T06:15:50.969Z,4.60
2023-03-07T06:16:24.788Z,5.10
2023-03-07T06:16:58.684Z,5.60
2023-03-07T06:17:32.041Z,6.00
2023-03-07T06:18:07.478Z,6.50
2023-03-07T06:22:19.881Z,10.40
2023-03-07T06:22:55.189Z,10.90
2023-03-07T06:27:35.931Z,13.80
2023-03-07T06:28:13.393Z,13.70
2023-03-07T06:28:54.004Z,13.90
2023-03-07T06:29:31.825Z,13.90
2023-03-07T06:30:07.318Z,13.90
2023-03-07T06:30:41.878Z,13.90
2023-03-07T06:31:19.218Z,13.80
2023-03-07T06:31:55.448Z,13.70
2023-03-07T06:32:28.787Z,13.60
2023-03-07T06:33:02.817Z,13.50
2023-03-07T06:33:37.110Z,13.40
2023-03-07T06:34:14.784Z,13.30
2023-03-07T06:34:49.778Z,13.10
2023-03-07T06:35:24.838Z,12.90
2023-03-07T06:36:06.113Z,12.80
2023-03-07T06:36:41.231Z,12.50
2023-03-07T06:37:18.160Z,12.30
2023-03-07T06:38:11.523Z,12.10
2023-03-07T06:38:49.204Z,11.80
2023-03-07T06:39:31.694Z,11.60
2023-03-07T06:40:12.378Z,11.40
2023-03-07T06:40:49.908Z,11.00
2023-03-07T06:41:23.157Z,10.90
2023-03-07T06:42:12.187Z,10.70
2023-03-07T06:42:46.538Z,10.60
2023-03-07T06:43:23.411Z,10.40
2023-03-07T06:44:21.643Z,10.30
2023-03-07T06:44:54.313Z,10.20
2023-03-07T06:45:47.300Z,10.10
2023-03-07T06:46:35.577Z,10.10
2023-03-07T06:47:16.304Z,9.80
2023-03-07T06:47:53.004Z,9.70
2023-03-07T06:48:48.426Z,9.50
2023-03-07T06:49:29.658Z,9.50
2023-03-07T06:50:08.853Z,9.40
2023-03-07T06:50:45.172Z,9.40
2023-03-07T06:51:38.082Z,9.40
2023-03-07T06:52:30.168Z,9.30
2023-03-07T06:54:11.114Z,9.30
2023-03-07T06:57:10.527Z,9.30
2023-03-07T06:57:52.592Z,9.40
2023-03-07T06:58:32.979Z,9.60
2023-03-07T06:59:06.145Z,9.60
2023-03-07T06:59:44.268Z,9.50
2023-03-07T07:00:26.870Z,9.50
2023-03-07T07:00:59.990Z,9.40
2023-03-07T07:02:01.092Z,9.20
2023-03-07T07:02:53.062Z,9.10
2023-03-07T07:03:43.255Z,8.80
2023-03-07T07:04:28.041Z,8.70
2023-03-07T07:07:32.307Z,7.80
2023-03-07T07:08:08.367Z,7.70
2023-03-07T07:08:41.982Z,7.60
2023-03-07T07:09:15.804Z,7.40
2023-03-07T07:09:48.470Z,7.30
2023-03-07T07:10:22.159Z,7.10
2023-03-07T07:10:59.599Z,7.00
2023-03-07T07:11:35.874Z,6.90
2023-03-07T07:12:19.641Z,6.80
2023-03-07T07:12:57.266Z,6.60
2023-03-07T07:13:38.525Z,6.50
2023-03-07T07:14:13.709Z,6.40
2023-03-07T07:14:51.276Z,6.30
2023-03-07T07:15:28.925Z,6.20
2023-03-07T07:16:08.138Z,6.10
2023-03-07T07:16:43.471Z,6.00
2023-03-07T07:17:17.856Z,5.90
2023-03-07T07:17:53.290Z,5.90
2023-03-07T07:18:29.596Z,5.80
2023-03-07T07:19:04.918Z,5.70
2023-03-07T09:38:13.605Z,15.30
2023-03-07T09:38:47.426Z,15.10
2023-03-07T09:39:21.082Z,15.20
2023-03-07T09:39:54.993Z,15.10
2023-03-07T09:40:33.590Z,15.10
2023-03-07T09:41:15.140Z,15.00
2023-03-07T09:42:00.609Z,14.90
2023-03-07T09:42:41.073Z,14.90
2023-03-07T09:43:21.205Z,14.90
2023-03-07T09:44:33.348Z,14.90
2023-03-07T09:45:39.585Z,15.00
2023-03-07T09:46:29.962Z,15.00
2023-03-07T09:47:20.000Z,15.00
2023-03-07T09:48:22.608Z,15.00
2023-03-07T09:49:24.303Z,15.00
2023-03-07T09:50:03.280Z,15.00
2023-03-07T09:50:44.582Z,14.90
2023-03-07T09:51:23.061Z,14.80
2023-03-07T09:52:00.794Z,14.80
2023-03-07T09:52:40.259Z,14.80
2023-03-07T09:53:19.815Z,14.70
2023-03-07T09:53:56.900Z,14.70
2023-03-07T09:54:39.661Z,14.70
2023-03-07T09:55:17.237Z,14.80
2023-03-07T09:55:54.902Z,14.80
2023-03-07T09:56:36.595Z,14.90
2023-03-07T09:57:19.019Z,14.90
2023-03-07T09:57:56.276Z,14.90
2023-03-07T09:58:30.758Z,14.90
2023-03-07T09:59:22.449Z,14.90
2023-03-07T10:00:01.151Z,14.80
2023-03-07T10:00:38.235Z,14.80
2023-03-07T10:01:13.576Z,14.80
2023-03-07T10:01:48.063Z,14.90
2023-03-07T10:02:31.042Z,14.90
2023-03-07T10:03:18.476Z,14.90
2023-03-07T10:03:59.167Z,14.90
2023-03-07T10:04:44.000Z,15.00
2023-03-07T10:05:29.728Z,15.00
2023-03-07T10:06:09.523Z,15.00
2023-03-07T10:06:43.543Z,15.00
2023-03-07T10:07:18.415Z,15.10
2023-03-07T10:07:52.115Z,15.20
2023-03-07T10:08:29.867Z,15.20
2023-03-07T10:09:06.620Z,15.30
2023-03-07T10:09:40.484Z,15.40
2023-03-07T10:10:20.724Z,15.40
2023-03-07T10:11:04.032Z,15.50
2023-03-07T10:12:14.459Z,15.70
2023-03-07T10:13:04.029Z,15.80
2023-03-07T10:14:00.526Z,15.80
2023-03-07T10:14:50.094Z,15.80
2023-03-07T10:15:45.837Z,15.90
2023-03-07T10:16:27.130Z,16.00
2023-03-07T10:17:09.999Z,16.10
2023-03-07T10:18:04.770Z,16.10
2023-03-07T10:18:55.573Z,16.10
2023-03-07T10:19:32.663Z,16.00
2023-03-07T10:20:17.570Z,16.00
2023-03-07T10:20:57.429Z,15.90
2023-03-07T10:21:43.051Z,16.00
2023-03-07T10:22:25.593Z,15.90
2023-03-07T10:23:40.668Z,15.80
2023-03-07T10:24:38.095Z,15.60
2023-03-07T10:25:24.276Z,15.50
2023-03-07T10:26:04.922Z,15.50
2023-03-07T10:26:47.864Z,15.50
2023-03-07T10:27:34.692Z,15.60
2023-03-07T10:28:17.165Z,15.60
2023-03-07T10:28:50.957Z,15.70
2023-03-07T10:29:29.031Z,15.70
2023-03-07T10:30:15.951Z,15.70
2023-03-07T10:30:58.557Z,15.70
2023-03-07T10:31:48.705Z,15.80
2023-03-07T10:32:31.012Z,15.80
2023-03-07T10:33:10.576Z,15.90
2023-03-07T10:33:50.326Z,15.90
2023-03-07T10:34:32.659Z,15.90
2023-03-07T10:35:17.747Z,16.00
2023-03-07T10:35:59.957Z,16.00
2023-03-07T10:36:38.965Z,16.00
2023-03-07T10:37:18.987Z,16.00
2023-03-07T10:37:57.005Z,15.90
2023-03-07T10:38:36.733Z,15.90
2023-03-07T10:39:22.020Z,15.90
2023-03-07T10:39:57.832Z,16.00
2023-03-07T10:40:37.359Z,15.90
2023-03-07T10:41:19.151Z,15.80
2023-03-07T10:41:52.087Z,15.80
2023-03-07T10:42:27.500Z,15.80
2023-03-07T10:43:01.367Z,15.80
2023-03-07T10:43:44.717Z,15.70
2023-03-07T10:44:30.859Z,15.60
2023-03-07T10:45:04.749Z,15.40
2023-03-07T10:45:41.439Z,15.20
2023-03-07T10:46:26.852Z,15.10
2023-03-07T10:47:01.639Z,14.80
2023-03-07T10:47:34.997Z,14.70
